Monroeton, Pennsylvania
Current Conditions -  °F | °C
As of 10:53 AM on Wednesday 22 Oct 2014 (Local Time) from KELM Reporting Station
Haze Haze  
Wind Chill: 42°   Ceiling: 800
Heat Index: 47°   Visibility: 6mi
Dew Point: 45°   Wind: 10mph
Humidity: 93%   Direction: 50°NE
Pressure: 30.12"   Gusts: 20mph
Location:  41.71°N, 76.47°W
Report Text: KELM 221453Z 05009G17KT 6SM BR OVC008 08/07 A3012 RMK AO2 SLP203 60000 T00830072 51015
Loading
Personal Weather Stations






























Interactive Weather Map
Tropical Storm Tracking
New forecast layout! Learn more

10-Day Weather Forecast

Advertisements
Track Severe Weather on mobile